sensor_id;sensor_type;location;lat;lon;timestamp;P1;durP1;ratioP1;P2;durP2;ratioP2
7195;SDS011;3639;51.308;5.624;2023-01-26T00:01:16;73.60;;;26.13;;
7195;SDS011;3639;51.308;5.624;2023-01-26T00:03:52;68.00;;;26.37;;
7195;SDS011;3639;51.308;5.624;2023-01-26T00:06:18;72.00;;;24.77;;
7195;SDS011;3639;51.308;5.624;2023-01-26T00:08:46;65.83;;;21.50;;
7195;SDS011;3639;51.308;5.624;2023-01-26T00:11:14;63.47;;;23.20;;
7195;SDS011;3639;51.308;5.624;2023-01-26T00:13:42;74.43;;;24.30;;
7195;SDS011;3639;51.308;5.624;2023-01-26T00:16:12;75.67;;;24.73;;
7195;SDS011;3639;51.308;5.624;2023-01-26T00:18:39;71.70;;;23.57;;
7195;SDS011;3639;51.308;5.624;2023-01-26T00:21:06;70.10;;;25.57;;
7195;SDS011;3639;51.308;5.624;2023-01-26T00:23:33;80.17;;;25.63;;
7195;SDS011;3639;51.308;5.624;2023-01-26T00:25:59;73.27;;;25.03;;
7195;SDS011;3639;51.308;5.624;2023-01-26T00:28:26;61.63;;;23.40;;
7195;SDS011;3639;51.308;5.624;2023-01-26T00:30:52;72.93;;;25.30;;
7195;SDS011;3639;51.308;5.624;2023-01-26T00:33:18;79.43;;;27.47;;
7195;SDS011;3639;51.308;5.624;2023-01-26T00:35:43;67.77;;;22.33;;
7195;SDS011;3639;51.308;5.624;2023-01-26T00:38:17;72.40;;;24.20;;
7195;SDS011;3639;51.308;5.624;2023-01-26T00:40:43;74.00;;;23.33;;
7195;SDS011;3639;51.308;5.624;2023-01-26T00:43:08;75.40;;;27.57;;
7195;SDS011;3639;51.308;5.624;2023-01-26T00:45:34;74.53;;;26.77;;
7195;SDS011;3639;51.308;5.624;2023-01-26T00:48:00;83.50;;;27.17;;
7195;SDS011;3639;51.308;5.624;2023-01-26T00:50:25;69.03;;;23.40;;
7195;SDS011;3639;51.308;5.624;2023-01-26T00:52:51;77.70;;;25.70;;
7195;SDS011;3639;51.308;5.624;2023-01-26T00:55:18;72.03;;;25.80;;
7195;SDS011;3639;51.308;5.624;2023-01-26T00:57:43;77.07;;;25.47;;
7195;SDS011;3639;51.308;5.624;2023-01-26T01:00:09;75.60;;;25.70;;
7195;SDS011;3639;51.308;5.624;2023-01-26T01:02:40;75.83;;;22.00;;
7195;SDS011;3639;51.308;5.624;2023-01-26T01:05:09;60.17;;;22.97;;
7195;SDS011;3639;51.308;5.624;2023-01-26T01:07:35;83.33;;;25.13;;
7195;SDS011;3639;51.308;5.624;2023-01-26T01:10:01;66.13;;;22.80;;
7195;SDS011;3639;51.308;5.624;2023-01-26T01:12:26;75.43;;;23.40;;
7195;SDS011;3639;51.308;5.624;2023-01-26T01:14:52;61.63;;;24.20;;
7195;SDS011;3639;51.308;5.624;2023-01-26T01:17:18;68.00;;;21.97;;
7195;SDS011;3639;51.308;5.624;2023-01-26T01:19:43;83.43;;;26.57;;
7195;SDS011;3639;51.308;5.624;2023-01-26T01:22:09;67.10;;;25.27;;
7195;SDS011;3639;51.308;5.624;2023-01-26T01:24:35;74.57;;;24.00;;
7195;SDS011;3639;51.308;5.624;2023-01-26T01:27:01;66.73;;;23.67;;
7195;SDS011;3639;51.308;5.624;2023-01-26T01:29:27;67.87;;;24.87;;
7195;SDS011;3639;51.308;5.624;2023-01-26T01:31:53;77.87;;;26.17;;
7195;SDS011;3639;51.308;5.624;2023-01-26T01:34:18;80.37;;;24.17;;
7195;SDS011;3639;51.308;5.624;2023-01-26T01:36:44;68.93;;;21.20;;
7195;SDS011;3639;51.308;5.624;2023-01-26T01:39:10;67.00;;;23.47;;
7195;SDS011;3639;51.308;5.624;2023-01-26T01:41:35;77.83;;;23.83;;
7195;SDS011;3639;51.308;5.624;2023-01-26T01:46:43;68.13;;;23.67;;
7195;SDS011;3639;51.308;5.624;2023-01-26T01:51:51;67.10;;;22.73;;
7195;SDS011;3639;51.308;5.624;2023-01-26T01:54:33;60.70;;;23.87;;
7195;SDS011;3639;51.308;5.624;2023-01-26T01:57:09;69.50;;;23.37;;
7195;SDS011;3639;51.308;5.624;2023-01-26T01:59:45;68.70;;;23.00;;
7195;SDS011;3639;51.308;5.624;2023-01-26T02:02:15;64.43;;;22.77;;
7195;SDS011;3639;51.308;5.624;2023-01-26T02:04:42;68.40;;;23.70;;
7195;SDS011;3639;51.308;5.624;2023-01-26T02:07:08;73.60;;;23.20;;
7195;SDS011;3639;51.308;5.624;2023-01-26T02:09:36;65.77;;;21.03;;
7195;SDS011;3639;51.308;5.624;2023-01-26T02:12:23;63.17;;;22.23;;
7195;SDS011;3639;51.308;5.624;2023-01-26T02:14:53;70.17;;;25.63;;
7195;SDS011;3639;51.308;5.624;2023-01-26T02:17:20;65.90;;;21.90;;
7195;SDS011;3639;51.308;5.624;2023-01-26T02:28:06;74.70;;;23.27;;
7195;SDS011;3639;51.308;5.624;2023-01-26T02:30:32;65.20;;;22.70;;
7195;SDS011;3639;51.308;5.624;2023-01-26T02:32:58;68.90;;;22.77;;
7195;SDS011;3639;51.308;5.624;2023-01-26T02:35:24;59.67;;;22.40;;
7195;SDS011;3639;51.308;5.624;2023-01-26T02:37:49;56.70;;;21.00;;
7195;SDS011;3639;51.308;5.624;2023-01-26T02:40:24;69.73;;;25.47;;
7195;SDS011;3639;51.308;5.624;2023-01-26T02:42:53;71.90;;;22.67;;
7195;SDS011;3639;51.308;5.624;2023-01-26T02:45:19;71.50;;;23.17;;
7195;SDS011;3639;51.308;5.624;2023-01-26T02:47:45;69.47;;;21.43;;
7195;SDS011;3639;51.308;5.624;2023-01-26T02:50:12;60.30;;;21.97;;
7195;SDS011;3639;51.308;5.624;2023-01-26T02:52:38;71.37;;;23.33;;
7195;SDS011;3639;51.308;5.624;2023-01-26T02:55:04;64.60;;;20.80;;
7195;SDS011;3639;51.308;5.624;2023-01-26T02:58:10;72.03;;;21.47;;
7195;SDS011;3639;51.308;5.624;2023-01-26T03:00:35;67.47;;;22.33;;
7195;SDS011;3639;51.308;5.624;2023-01-26T03:03:01;69.17;;;22.13;;
7195;SDS011;3639;51.308;5.624;2023-01-26T03:05:32;69.80;;;21.37;;
7195;SDS011;3639;51.308;5.624;2023-01-26T03:07:57;67.17;;;23.93;;
7195;SDS011;3639;51.308;5.624;2023-01-26T03:10:23;67.30;;;22.13;;
7195;SDS011;3639;51.308;5.624;2023-01-26T03:12:50;67.47;;;21.77;;
7195;SDS011;3639;51.308;5.624;2023-01-26T03:15:17;68.70;;;22.77;;
7195;SDS011;3639;51.308;5.624;2023-01-26T03:18:05;64.63;;;21.53;;
7195;SDS011;3639;51.308;5.624;2023-01-26T03:20:59;54.20;;;20.73;;
7195;SDS011;3639;51.308;5.624;2023-01-26T03:23:44;62.63;;;22.30;;
7195;SDS011;3639;51.308;5.624;2023-01-26T03:26:28;63.87;;;22.80;;
7195;SDS011;3639;51.308;5.624;2023-01-26T03:29:12;60.47;;;20.77;;
7195;SDS011;3639;51.308;5.624;2023-01-26T03:31:38;62.30;;;20.40;;
7195;SDS011;3639;51.308;5.624;2023-01-26T03:34:04;59.13;;;21.00;;
7195;SDS011;3639;51.308;5.624;2023-01-26T03:36:30;67.40;;;22.33;;
7195;SDS011;3639;51.308;5.624;2023-01-26T03:38:55;62.83;;;22.37;;
7195;SDS011;3639;51.308;5.624;2023-01-26T03:41:21;62.83;;;21.27;;
7195;SDS011;3639;51.308;5.624;2023-01-26T03:44:05;56.20;;;20.83;;
7195;SDS011;3639;51.308;5.624;2023-01-26T03:46:49;52.10;;;19.03;;
7195;SDS011;3639;51.308;5.624;2023-01-26T03:49:33;56.67;;;21.03;;
7195;SDS011;3639;51.308;5.624;2023-01-26T03:52:17;50.53;;;19.60;;
7195;SDS011;3639;51.308;5.624;2023-01-26T03:55:01;51.63;;;18.50;;
7195;SDS011;3639;51.308;5.624;2023-01-26T03:57:46;61.07;;;21.00;;
7195;SDS011;3639;51.308;5.624;2023-01-26T04:00:12;52.07;;;20.13;;
7195;SDS011;3639;51.308;5.624;2023-01-26T04:02:39;61.63;;;21.97;;
7195;SDS011;3639;51.308;5.624;2023-01-26T04:05:24;52.33;;;19.73;;
7195;SDS011;3639;51.308;5.624;2023-01-26T04:08:08;57.83;;;20.97;;
7195;SDS011;3639;51.308;5.624;2023-01-26T04:10:54;56.70;;;20.30;;
7195;SDS011;3639;51.308;5.624;2023-01-26T04:13:21;46.63;;;19.33;;
7195;SDS011;3639;51.308;5.624;2023-01-26T04:16:07;42.23;;;16.50;;
7195;SDS011;3639;51.308;5.624;2023-01-26T04:18:52;47.00;;;19.67;;
7195;SDS011;3639;51.308;5.624;2023-01-26T04:21:37;53.73;;;18.80;;
7195;SDS011;3639;51.308;5.624;2023-01-26T04:24:04;46.77;;;16.90;;
7195;SDS011;3639;51.308;5.624;2023-01-26T04:26:39;48.53;;;18.00;;
7195;SDS011;3639;51.308;5.624;2023-01-26T04:29:07;48.87;;;18.10;;
7195;SDS011;3639;51.308;5.624;2023-01-26T04:31:35;43.17;;;16.73;;
7195;SDS011;3639;51.308;5.624;2023-01-26T04:34:01;52.33;;;18.47;;
7195;SDS011;3639;51.308;5.624;2023-01-26T04:36:29;52.30;;;18.80;;
7195;SDS011;3639;51.308;5.624;2023-01-26T04:38:55;45.13;;;16.70;;
7195;SDS011;3639;51.308;5.624;2023-01-26T04:41:20;46.13;;;16.90;;
7195;SDS011;3639;51.308;5.624;2023-01-26T04:43:47;45.57;;;17.13;;
7195;SDS011;3639;51.308;5.624;2023-01-26T04:46:12;43.57;;;17.10;;
7195;SDS011;3639;51.308;5.624;2023-01-26T04:48:38;48.60;;;17.43;;
7195;SDS011;3639;51.308;5.624;2023-01-26T04:51:05;45.07;;;16.73;;
7195;SDS011;3639;51.308;5.624;2023-01-26T04:53:32;47.47;;;18.10;;
7195;SDS011;3639;51.308;5.624;2023-01-26T04:55:58;45.33;;;16.67;;
7195;SDS011;3639;51.308;5.624;2023-01-26T04:58:25;50.73;;;17.07;;
7195;SDS011;3639;51.308;5.624;2023-01-26T05:00:51;50.13;;;17.23;;
7195;SDS011;3639;51.308;5.624;2023-01-26T05:03:21;40.63;;;15.03;;
7195;SDS011;3639;51.308;5.624;2023-01-26T05:05:48;52.03;;;16.50;;
7195;SDS011;3639;51.308;5.624;2023-01-26T05:08:15;51.07;;;17.03;;
7195;SDS011;3639;51.308;5.624;2023-01-26T05:10:41;50.90;;;18.77;;
7195;SDS011;3639;51.308;5.624;2023-01-26T05:13:07;51.10;;;16.23;;
7195;SDS011;3639;51.308;5.624;2023-01-26T05:15:33;42.40;;;15.07;;
7195;SDS011;3639;51.308;5.624;2023-01-26T05:17:59;41.10;;;15.50;;
7195;SDS011;3639;51.308;5.624;2023-01-26T05:20:25;42.23;;;16.00;;
7195;SDS011;3639;51.308;5.624;2023-01-26T05:22:51;45.63;;;16.27;;
7195;SDS011;3639;51.308;5.624;2023-01-26T05:25:16;42.53;;;16.07;;
7195;SDS011;3639;51.308;5.624;2023-01-26T05:27:42;42.37;;;16.03;;
7195;SDS011;3639;51.308;5.624;2023-01-26T05:30:08;39.60;;;14.83;;
7195;SDS011;3639;51.308;5.624;2023-01-26T05:32:34;42.40;;;16.43;;
7195;SDS011;3639;51.308;5.624;2023-01-26T05:35:01;38.67;;;14.90;;
7195;SDS011;3639;51.308;5.624;2023-01-26T05:37:27;35.87;;;14.47;;
7195;SDS011;3639;51.308;5.624;2023-01-26T05:39:53;48.03;;;16.47;;
7195;SDS011;3639;51.308;5.624;2023-01-26T05:42:19;37.20;;;16.03;;
7195;SDS011;3639;51.308;5.624;2023-01-26T05:44:45;42.90;;;14.97;;
7195;SDS011;3639;51.308;5.624;2023-01-26T05:47:11;35.47;;;13.57;;
7195;SDS011;3639;51.308;5.624;2023-01-26T05:49:36;41.27;;;16.33;;
7195;SDS011;3639;51.308;5.624;2023-01-26T05:52:08;35.93;;;13.47;;
7195;SDS011;3639;51.308;5.624;2023-01-26T05:54:35;42.73;;;14.27;;
7195;SDS011;3639;51.308;5.624;2023-01-26T05:57:01;50.70;;;16.83;;
7195;SDS011;3639;51.308;5.624;2023-01-26T05:59:27;50.63;;;14.97;;
7195;SDS011;3639;51.308;5.624;2023-01-26T06:01:54;39.17;;;14.40;;
7195;SDS011;3639;51.308;5.624;2023-01-26T06:04:20;44.57;;;14.97;;
7195;SDS011;3639;51.308;5.624;2023-01-26T06:06:46;41.00;;;14.13;;
7195;SDS011;3639;51.308;5.624;2023-01-26T06:09:11;36.23;;;13.40;;
7195;SDS011;3639;51.308;5.624;2023-01-26T06:11:37;46.00;;;16.80;;
7195;SDS011;3639;51.308;5.624;2023-01-26T06:14:03;42.20;;;13.93;;
7195;SDS011;3639;51.308;5.624;2023-01-26T06:16:29;39.67;;;12.57;;
7195;SDS011;3639;51.308;5.624;2023-01-26T06:18:54;50.27;;;16.70;;
7195;SDS011;3639;51.308;5.624;2023-01-26T06:21:20;44.30;;;16.23;;
7195;SDS011;3639;51.308;5.624;2023-01-26T06:23:46;42.33;;;16.13;;
7195;SDS011;3639;51.308;5.624;2023-01-26T06:26:11;49.23;;;15.17;;
7195;SDS011;3639;51.308;5.624;2023-01-26T06:28:37;46.43;;;17.10;;
7195;SDS011;3639;51.308;5.624;2023-01-26T06:31:04;42.20;;;14.73;;
7195;SDS011;3639;51.308;5.624;2023-01-26T06:33:31;38.10;;;13.97;;
7195;SDS011;3639;51.308;5.624;2023-01-26T06:36:01;37.03;;;12.50;;
7195;SDS011;3639;51.308;5.624;2023-01-26T06:38:28;42.60;;;14.90;;
7195;SDS011;3639;51.308;5.624;2023-01-26T06:40:54;40.70;;;14.70;;
7195;SDS011;3639;51.308;5.624;2023-01-26T06:43:23;36.90;;;14.60;;
7195;SDS011;3639;51.308;5.624;2023-01-26T06:45:48;33.73;;;13.20;;
7195;SDS011;3639;51.308;5.624;2023-01-26T06:48:14;36.63;;;13.93;;
7195;SDS011;3639;51.308;5.624;2023-01-26T06:50:39;44.80;;;15.47;;
7195;SDS011;3639;51.308;5.624;2023-01-26T06:53:23;34.10;;;13.53;;
7195;SDS011;3639;51.308;5.624;2023-01-26T06:55:49;38.93;;;15.10;;
7195;SDS011;3639;51.308;5.624;2023-01-26T06:58:16;33.17;;;12.67;;
7195;SDS011;3639;51.308;5.624;2023-01-26T07:00:41;33.60;;;13.50;;
7195;SDS011;3639;51.308;5.624;2023-01-26T07:03:08;36.70;;;13.53;;
7195;SDS011;3639;51.308;5.624;2023-01-26T07:05:34;37.53;;;14.00;;
7195;SDS011;3639;51.308;5.624;2023-01-26T07:08:00;38.77;;;14.10;;
7195;SDS011;3639;51.308;5.624;2023-01-26T07:10:28;39.43;;;13.43;;
7195;SDS011;3639;51.308;5.624;2023-01-26T07:12:54;38.73;;;14.13;;
7195;SDS011;3639;51.308;5.624;2023-01-26T07:15:19;40.97;;;15.07;;
7195;SDS011;3639;51.308;5.624;2023-01-26T07:17:45;32.60;;;13.93;;
7195;SDS011;3639;51.308;5.624;2023-01-26T07:20:11;40.27;;;15.23;;
7195;SDS011;3639;51.308;5.624;2023-01-26T07:22:37;47.97;;;15.30;;
7195;SDS011;3639;51.308;5.624;2023-01-26T07:25:02;38.17;;;14.20;;
7195;SDS011;3639;51.308;5.624;2023-01-26T07:27:28;38.27;;;12.93;;
7195;SDS011;3639;51.308;5.624;2023-01-26T07:29:54;37.93;;;13.43;;
7195;SDS011;3639;51.308;5.624;2023-01-26T07:32:19;37.73;;;13.53;;
7195;SDS011;3639;51.308;5.624;2023-01-26T07:34:45;37.47;;;15.00;;
7195;SDS011;3639;51.308;5.624;2023-01-26T07:37:12;50.50;;;16.57;;
7195;SDS011;3639;51.308;5.624;2023-01-26T07:39:37;42.20;;;15.70;;
7195;SDS011;3639;51.308;5.624;2023-01-26T07:42:03;40.27;;;16.17;;
7195;SDS011;3639;51.308;5.624;2023-01-26T07:44:29;44.33;;;15.57;;
7195;SDS011;3639;51.308;5.624;2023-01-26T07:46:56;36.57;;;14.33;;
7195;SDS011;3639;51.308;5.624;2023-01-26T07:49:21;38.40;;;13.63;;
7195;SDS011;3639;51.308;5.624;2023-01-26T07:51:47;40.03;;;12.90;;
7195;SDS011;3639;51.308;5.624;2023-01-26T07:54:13;36.60;;;12.77;;
7195;SDS011;3639;51.308;5.624;2023-01-26T07:56:38;35.97;;;13.33;;
7195;SDS011;3639;51.308;5.624;2023-01-26T07:59:04;41.70;;;13.77;;
7195;SDS011;3639;51.308;5.624;2023-01-26T08:01:29;43.23;;;14.17;;
7195;SDS011;3639;51.308;5.624;2023-01-26T08:03:55;38.83;;;13.53;;
7195;SDS011;3639;51.308;5.624;2023-01-26T08:06:21;37.80;;;14.80;;
7195;SDS011;3639;51.308;5.624;2023-01-26T08:08:47;40.40;;;14.50;;
7195;SDS011;3639;51.308;5.624;2023-01-26T08:11:18;39.83;;;13.40;;
7195;SDS011;3639;51.308;5.624;2023-01-26T08:13:46;34.67;;;12.47;;
7195;SDS011;3639;51.308;5.624;2023-01-26T08:16:12;42.50;;;17.30;;
7195;SDS011;3639;51.308;5.624;2023-01-26T08:18:38;35.23;;;11.50;;
7195;SDS011;3639;51.308;5.624;2023-01-26T08:21:05;40.47;;;14.37;;
7195;SDS011;3639;51.308;5.624;2023-01-26T08:23:31;49.33;;;13.90;;
7195;SDS011;3639;51.308;5.624;2023-01-26T08:26:01;41.13;;;13.37;;
7195;SDS011;3639;51.308;5.624;2023-01-26T08:28:31;34.63;;;12.50;;
7195;SDS011;3639;51.308;5.624;2023-01-26T08:31:04;34.07;;;12.70;;
7195;SDS011;3639;51.308;5.624;2023-01-26T08:33:31;39.67;;;12.73;;
7195;SDS011;3639;51.308;5.624;2023-01-26T08:36:01;36.97;;;13.23;;
7195;SDS011;3639;51.308;5.624;2023-01-26T08:38:28;33.57;;;12.47;;
7195;SDS011;3639;51.308;5.624;2023-01-26T08:40:55;30.73;;;12.43;;
7195;SDS011;3639;51.308;5.624;2023-01-26T08:43:21;36.97;;;12.47;;
7195;SDS011;3639;51.308;5.624;2023-01-26T08:45:47;36.00;;;11.77;;
7195;SDS011;3639;51.308;5.624;2023-01-26T08:48:13;30.43;;;11.83;;
7195;SDS011;3639;51.308;5.624;2023-01-26T08:50:39;36.80;;;13.33;;
7195;SDS011;3639;51.308;5.624;2023-01-26T08:53:05;34.87;;;12.47;;
7195;SDS011;3639;51.308;5.624;2023-01-26T08:55:30;38.20;;;12.60;;
7195;SDS011;3639;51.308;5.624;2023-01-26T08:57:57;39.10;;;13.80;;
7195;SDS011;3639;51.308;5.624;2023-01-26T09:00:23;40.53;;;12.77;;
7195;SDS011;3639;51.308;5.624;2023-01-26T09:02:49;32.20;;;12.40;;
7195;SDS011;3639;51.308;5.624;2023-01-26T09:05:15;31.37;;;11.70;;
7195;SDS011;3639;51.308;5.624;2023-01-26T09:07:41;34.47;;;12.53;;
7195;SDS011;3639;51.308;5.624;2023-01-26T09:10:08;34.63;;;12.63;;
7195;SDS011;3639;51.308;5.624;2023-01-26T09:12:34;38.90;;;13.00;;
7195;SDS011;3639;51.308;5.624;2023-01-26T09:14:59;35.50;;;11.97;;
7195;SDS011;3639;51.308;5.624;2023-01-26T09:17:25;33.33;;;12.20;;
7195;SDS011;3639;51.308;5.624;2023-01-26T09:19:51;39.63;;;12.70;;
7195;SDS011;3639;51.308;5.624;2023-01-26T09:22:16;31.80;;;11.97;;
7195;SDS011;3639;51.308;5.624;2023-01-26T09:24:42;31.20;;;11.53;;
7195;SDS011;3639;51.308;5.624;2023-01-26T09:27:07;32.93;;;11.97;;
7195;SDS011;3639;51.308;5.624;2023-01-26T09:29:33;37.37;;;12.17;;
7195;SDS011;3639;51.308;5.624;2023-01-26T09:31:59;30.13;;;12.30;;
7195;SDS011;3639;51.308;5.624;2023-01-26T09:34:24;32.63;;;12.07;;
7195;SDS011;3639;51.308;5.624;2023-01-26T09:36:50;25.47;;;10.67;;
7195;SDS011;3639;51.308;5.624;2023-01-26T09:39:16;29.40;;;10.37;;
7195;SDS011;3639;51.308;5.624;2023-01-26T09:41:57;26.47;;;10.87;;
7195;SDS011;3639;51.308;5.624;2023-01-26T09:44:47;27.50;;;10.60;;
7195;SDS011;3639;51.308;5.624;2023-01-26T09:50:39;45.47;;;16.30;;
7195;SDS011;3639;51.308;5.624;2023-01-26T09:53:15;52.37;;;20.67;;
7195;SDS011;3639;51.308;5.624;2023-01-26T09:55:44;36.57;;;15.43;;
7195;SDS011;3639;51.308;5.624;2023-01-26T09:58:13;35.97;;;13.37;;
7195;SDS011;3639;51.308;5.624;2023-01-26T10:00:47;31.23;;;12.47;;
7195;SDS011;3639;51.308;5.624;2023-01-26T10:03:25;35.07;;;11.77;;
7195;SDS011;3639;51.308;5.624;2023-01-26T10:08:24;29.53;;;11.20;;
7195;SDS011;3639;51.308;5.624;2023-01-26T10:10:58;25.67;;;10.70;;
7195;SDS011;3639;51.308;5.624;2023-01-26T10:13:27;24.07;;;9.37;;
7195;SDS011;3639;51.308;5.624;2023-01-26T10:15:58;29.53;;;11.03;;
7195;SDS011;3639;51.308;5.624;2023-01-26T10:18:36;33.67;;;11.10;;
7195;SDS011;3639;51.308;5.624;2023-01-26T10:21:14;27.70;;;10.90;;
7195;SDS011;3639;51.308;5.624;2023-01-26T10:23:45;24.40;;;10.33;;
7195;SDS011;3639;51.308;5.624;2023-01-26T10:26:16;35.23;;;11.03;;
7195;SDS011;3639;51.308;5.624;2023-01-26T10:28:49;28.10;;;10.67;;
7195;SDS011;3639;51.308;5.624;2023-01-26T10:31:18;30.40;;;10.47;;
7195;SDS011;3639;51.308;5.624;2023-01-26T10:33:53;33.97;;;11.60;;
7195;SDS011;3639;51.308;5.624;2023-01-26T10:36:19;33.50;;;10.37;;
7195;SDS011;3639;51.308;5.624;2023-01-26T10:38:46;28.13;;;10.87;;
7195;SDS011;3639;51.308;5.624;2023-01-26T10:43:46;29.13;;;10.17;;
7195;SDS011;3639;51.308;5.624;2023-01-26T10:46:26;25.23;;;10.23;;
7195;SDS011;3639;51.308;5.624;2023-01-26T10:49:12;31.10;;;10.67;;
7195;SDS011;3639;51.308;5.624;2023-01-26T10:51:40;30.60;;;11.63;;
7195;SDS011;3639;51.308;5.624;2023-01-26T10:54:29;33.10;;;10.87;;
7195;SDS011;3639;51.308;5.624;2023-01-26T10:56:56;35.00;;;10.40;;
7195;SDS011;3639;51.308;5.624;2023-01-26T11:01:51;31.33;;;11.90;;
7195;SDS011;3639;51.308;5.624;2023-01-26T11:04:18;36.97;;;12.00;;
7195;SDS011;3639;51.308;5.624;2023-01-26T11:06:44;41.57;;;12.50;;
7195;SDS011;3639;51.308;5.624;2023-01-26T11:09:15;26.53;;;10.07;;
7195;SDS011;3639;51.308;5.624;2023-01-26T11:12:04;34.77;;;11.87;;
7195;SDS011;3639;51.308;5.624;2023-01-26T11:14:32;35.53;;;11.43;;
7195;SDS011;3639;51.308;5.624;2023-01-26T11:16:59;31.93;;;11.27;;
7195;SDS011;3639;51.308;5.624;2023-01-26T11:22:42;31.77;;;11.27;;
7195;SDS011;3639;51.308;5.624;2023-01-26T11:28:02;31.70;;;11.23;;
7195;SDS011;3639;51.308;5.624;2023-01-26T11:30:44;28.20;;;10.90;;
7195;SDS011;3639;51.308;5.624;2023-01-26T11:33:22;30.53;;;10.63;;
7195;SDS011;3639;51.308;5.624;2023-01-26T11:41:45;47.20;;;12.67;;
7195;SDS011;3639;51.308;5.624;2023-01-26T11:44:33;37.70;;;12.63;;
7195;SDS011;3639;51.308;5.624;2023-01-26T11:56:18;41.43;;;12.47;;
7195;SDS011;3639;51.308;5.624;2023-01-26T11:58:39;44.87;;;13.60;;
7195;SDS011;3639;51.308;5.624;2023-01-26T12:01:07;33.57;;;12.47;;
7195;SDS011;3639;51.308;5.624;2023-01-26T12:03:44;38.63;;;12.97;;
7195;SDS011;3639;51.308;5.624;2023-01-26T12:06:18;41.73;;;12.57;;
7195;SDS011;3639;51.308;5.624;2023-01-26T12:09:00;44.60;;;13.53;;
7195;SDS011;3639;51.308;5.624;2023-01-26T12:11:54;41.73;;;12.07;;
7195;SDS011;3639;51.308;5.624;2023-01-26T12:14:43;42.43;;;11.90;;
7195;SDS011;3639;51.308;5.624;2023-01-26T12:20:05;47.80;;;12.03;;
7195;SDS011;3639;51.308;5.624;2023-01-26T12:22:43;37.37;;;14.03;;
7195;SDS011;3639;51.308;5.624;2023-01-26T12:30:54;42.03;;;12.80;;
7195;SDS011;3639;51.308;5.624;2023-01-26T12:33:37;39.17;;;12.27;;
7195;SDS011;3639;51.308;5.624;2023-01-26T12:44:28;38.03;;;14.20;;
7195;SDS011;3639;51.308;5.624;2023-01-26T12:47:15;49.87;;;14.10;;
7195;SDS011;3639;51.308;5.624;2023-01-26T12:49:51;51.30;;;12.57;;
7195;SDS011;3639;51.308;5.624;2023-01-26T12:58:04;28.03;;;11.20;;
7195;SDS011;3639;51.308;5.624;2023-01-26T13:00:38;45.63;;;11.77;;
7195;SDS011;3639;51.308;5.624;2023-01-26T13:03:20;32.80;;;12.10;;
7195;SDS011;3639;51.308;5.624;2023-01-26T13:05:53;42.50;;;11.53;;
7195;SDS011;3639;51.308;5.624;2023-01-26T13:10:57;30.07;;;10.27;;
7195;SDS011;3639;51.308;5.624;2023-01-26T13:13:25;34.47;;;11.40;;
7195;SDS011;3639;51.308;5.624;2023-01-26T13:18:49;28.87;;;11.20;;
7195;SDS011;3639;51.308;5.624;2023-01-26T13:26:42;40.10;;;11.17;;
7195;SDS011;3639;51.308;5.624;2023-01-26T13:29:29;30.93;;;10.87;;
7195;SDS011;3639;51.308;5.624;2023-01-26T13:32:00;28.27;;;9.07;;
7195;SDS011;3639;51.308;5.624;2023-01-26T13:34:50;28.87;;;9.17;;
7195;SDS011;3639;51.308;5.624;2023-01-26T13:40:12;29.00;;;9.13;;
7195;SDS011;3639;51.308;5.624;2023-01-26T13:42:53;32.37;;;9.70;;
7195;SDS011;3639;51.308;5.624;2023-01-26T13:45:34;28.33;;;10.07;;
7195;SDS011;3639;51.308;5.624;2023-01-26T13:48:33;33.40;;;10.20;;
7195;SDS011;3639;51.308;5.624;2023-01-26T13:51:03;29.00;;;9.53;;
7195;SDS011;3639;51.308;5.624;2023-01-26T13:56:05;41.67;;;11.10;;
7195;SDS011;3639;51.308;5.624;2023-01-26T13:58:50;31.50;;;9.90;;
7195;SDS011;3639;51.308;5.624;2023-01-26T14:01:16;38.23;;;10.87;;
7195;SDS011;3639;51.308;5.624;2023-01-26T14:03:43;33.90;;;11.37;;
7195;SDS011;3639;51.308;5.624;2023-01-26T14:06:10;32.20;;;10.57;;
7195;SDS011;3639;51.308;5.624;2023-01-26T14:08:41;29.43;;;9.07;;
7195;SDS011;3639;51.308;5.624;2023-01-26T14:11:16;39.90;;;10.77;;
7195;SDS011;3639;51.308;5.624;2023-01-26T14:13:46;44.47;;;9.50;;
7195;SDS011;3639;51.308;5.624;2023-01-26T14:16:21;29.10;;;9.70;;
7195;SDS011;3639;51.308;5.624;2023-01-26T14:19:04;26.73;;;9.33;;
7195;SDS011;3639;51.308;5.624;2023-01-26T14:21:43;30.27;;;9.60;;
7195;SDS011;3639;51.308;5.624;2023-01-26T14:24:14;40.47;;;9.70;;
7195;SDS011;3639;51.308;5.624;2023-01-26T14:26:40;34.67;;;10.77;;
7195;SDS011;3639;51.308;5.624;2023-01-26T14:29:25;31.93;;;10.00;;
7195;SDS011;3639;51.308;5.624;2023-01-26T14:31:55;33.93;;;11.03;;
7195;SDS011;3639;51.308;5.624;2023-01-26T14:34:27;29.70;;;10.43;;
7195;SDS011;3639;51.308;5.624;2023-01-26T14:42:46;44.10;;;11.47;;
7195;SDS011;3639;51.308;5.624;2023-01-26T14:45:17;31.80;;;10.93;;
7195;SDS011;3639;51.308;5.624;2023-01-26T14:47:48;31.87;;;10.23;;
7195;SDS011;3639;51.308;5.624;2023-01-26T14:50:19;40.80;;;10.47;;
7195;SDS011;3639;51.308;5.624;2023-01-26T14:52:52;25.93;;;9.63;;
7195;SDS011;3639;51.308;5.624;2023-01-26T14:55:20;29.93;;;9.60;;
7195;SDS011;3639;51.308;5.624;2023-01-26T14:57:49;29.20;;;10.53;;
7195;SDS011;3639;51.308;5.624;2023-01-26T15:00:32;33.50;;;10.90;;
7195;SDS011;3639;51.308;5.624;2023-01-26T15:03:02;24.90;;;9.17;;
7195;SDS011;3639;51.308;5.624;2023-01-26T15:05:37;26.27;;;10.57;;
7195;SDS011;3639;51.308;5.624;2023-01-26T15:08:20;33.30;;;9.33;;
7195;SDS011;3639;51.308;5.624;2023-01-26T15:13:40;32.60;;;10.43;;
7195;SDS011;3639;51.308;5.624;2023-01-26T15:16:18;38.40;;;13.60;;
7195;SDS011;3639;51.308;5.624;2023-01-26T15:18:58;58.60;;;17.37;;
7195;SDS011;3639;51.308;5.624;2023-01-26T15:23:58;58.80;;;20.20;;
7195;SDS011;3639;51.308;5.624;2023-01-26T15:26:28;32.80;;;12.03;;
7195;SDS011;3639;51.308;5.624;2023-01-26T15:28:58;38.37;;;12.00;;
7195;SDS011;3639;51.308;5.624;2023-01-26T15:31:34;26.77;;;9.40;;
7195;SDS011;3639;51.308;5.624;2023-01-26T15:34:05;20.63;;;9.93;;
7195;SDS011;3639;51.308;5.624;2023-01-26T15:36:51;26.00;;;6.97;;
7195;SDS011;3639;51.308;5.624;2023-01-26T15:39:17;18.03;;;7.17;;
7195;SDS011;3639;51.308;5.624;2023-01-26T15:41:44;21.90;;;6.27;;
7195;SDS011;3639;51.308;5.624;2023-01-26T15:44:22;16.53;;;5.43;;
7195;SDS011;3639;51.308;5.624;2023-01-26T15:46:48;20.17;;;6.40;;
7195;SDS011;3639;51.308;5.624;2023-01-26T15:49:13;37.90;;;10.10;;
7195;SDS011;3639;51.308;5.624;2023-01-26T15:51:39;38.63;;;10.80;;
7195;SDS011;3639;51.308;5.624;2023-01-26T15:54:05;40.80;;;11.00;;
7195;SDS011;3639;51.308;5.624;2023-01-26T15:56:31;34.20;;;8.50;;
7195;SDS011;3639;51.308;5.624;2023-01-26T15:58:57;30.90;;;9.03;;
7195;SDS011;3639;51.308;5.624;2023-01-26T16:01:23;25.33;;;8.10;;
7195;SDS011;3639;51.308;5.624;2023-01-26T16:03:49;13.23;;;5.03;;
7195;SDS011;3639;51.308;5.624;2023-01-26T16:06:20;18.00;;;6.23;;
7195;SDS011;3639;51.308;5.624;2023-01-26T16:08:51;18.57;;;7.33;;
7195;SDS011;3639;51.308;5.624;2023-01-26T16:11:18;15.70;;;6.50;;
7195;SDS011;3639;51.308;5.624;2023-01-26T16:13:45;11.37;;;4.83;;
7195;SDS011;3639;51.308;5.624;2023-01-26T16:16:12;14.87;;;5.07;;
7195;SDS011;3639;51.308;5.624;2023-01-26T16:18:39;12.17;;;4.63;;
7195;SDS011;3639;51.308;5.624;2023-01-26T16:21:41;13.90;;;4.43;;
7195;SDS011;3639;51.308;5.624;2023-01-26T16:23:59;19.50;;;5.73;;
7195;SDS011;3639;51.308;5.624;2023-01-26T16:26:26;23.30;;;6.70;;
7195;SDS011;3639;51.308;5.624;2023-01-26T16:28:52;16.60;;;7.13;;
7195;SDS011;3639;51.308;5.624;2023-01-26T16:31:19;17.20;;;6.73;;
7195;SDS011;3639;51.308;5.624;2023-01-26T16:33:47;21.90;;;8.53;;
7195;SDS011;3639;51.308;5.624;2023-01-26T16:36:15;18.77;;;7.50;;
7195;SDS011;3639;51.308;5.624;2023-01-26T16:38:42;11.73;;;6.50;;
7195;SDS011;3639;51.308;5.624;2023-01-26T16:41:15;15.27;;;6.30;;
7195;SDS011;3639;51.308;5.624;2023-01-26T16:43:47;9.37;;;3.93;;